createdAt,value
2023-05-10T00:00:11.363Z,85.50
2023-05-10T00:02:41.530Z,85.53
2023-05-10T00:05:08.460Z,85.63
2023-05-10T00:07:35.027Z,85.45
2023-05-10T00:10:01.409Z,85.54
2023-05-10T00:12:27.829Z,85.42
2023-05-10T00:14:54.269Z,85.35
2023-05-10T00:17:20.997Z,85.23
2023-05-10T00:19:47.422Z,85.19
2023-05-10T00:22:13.868Z,85.22
2023-05-10T00:24:40.339Z,85.04
2023-05-10T00:27:06.772Z,85.19
2023-05-10T00:29:34.597Z,85.37
2023-05-10T00:32:01.085Z,85.33
2023-05-10T00:34:28.072Z,85.39
2023-05-10T00:36:54.618Z,85.44
2023-05-10T00:39:21.183Z,85.40
2023-05-10T00:41:47.594Z,85.50
2023-05-10T00:44:15.050Z,85.63
2023-05-10T00:46:42.823Z,85.56
2023-05-10T00:49:09.265Z,85.74
2023-05-10T00:51:36.168Z,85.62
2023-05-10T00:54:03.497Z,85.36
2023-05-10T00:56:30.718Z,85.55
2023-05-10T00:58:57.641Z,85.61
2023-05-10T01:01:24.301Z,85.39
2023-05-10T01:03:52.155Z,85.36
2023-05-10T01:06:18.550Z,85.53
2023-05-10T01:08:45.541Z,85.40
2023-05-10T01:11:12.057Z,85.52
2023-05-10T01:13:40.835Z,85.48
2023-05-10T01:16:08.137Z,85.65
2023-05-10T01:18:39.105Z,85.66
2023-05-10T01:21:12.152Z,85.60
2023-05-10T01:24:16.057Z,85.81
2023-05-10T01:26:57.561Z,85.53
2023-05-10T01:29:46.468Z,85.71
2023-05-10T01:32:21.516Z,85.51
2023-05-10T01:35:18.065Z,85.72
2023-05-10T01:37:57.843Z,86.35
2023-05-10T01:40:31.414Z,85.78
2023-05-10T01:43:09.273Z,85.80
2023-05-10T01:45:48.212Z,85.72
2023-05-10T01:48:16.057Z,85.56
2023-05-10T01:50:46.436Z,85.57
2023-05-10T01:53:18.053Z,85.80
2023-05-10T01:55:51.785Z,85.87
2023-05-10T01:58:23.719Z,85.63
2023-05-10T02:00:53.318Z,85.62
2023-05-10T02:03:22.994Z,85.91
2023-05-10T02:05:51.562Z,85.52
2023-05-10T02:08:19.945Z,85.47
2023-05-10T02:10:50.031Z,85.54
2023-05-10T02:13:17.878Z,85.56
2023-05-10T02:15:48.920Z,85.27
2023-05-10T02:18:17.754Z,85.47
2023-05-10T02:20:46.645Z,85.40
2023-05-10T02:23:14.317Z,85.57
2023-05-10T02:25:42.376Z,85.53
2023-05-10T02:28:11.416Z,85.63
2023-05-10T02:30:38.602Z,85.84
2023-05-10T02:33:06.732Z,85.85
2023-05-10T02:35:34.426Z,85.80
2023-05-10T02:38:03.018Z,85.83
2023-05-10T02:40:31.068Z,86.14
2023-05-10T02:42:59.586Z,85.86
2023-05-10T02:45:30.064Z,86.18
2023-05-10T02:47:57.741Z,86.03
2023-05-10T02:50:28.232Z,86.08
2023-05-10T02:53:00.661Z,86.16
2023-05-10T02:55:37.381Z,86.24
2023-05-10T02:58:04.621Z,86.67
2023-05-10T03:00:31.685Z,86.43
2023-05-10T03:02:58.350Z,86.60
2023-05-10T03:05:26.665Z,87.01
2023-05-10T03:07:54.041Z,86.56
2023-05-10T03:10:27.692Z,86.88
2023-05-10T03:13:14.165Z,86.85
2023-05-10T03:16:00.125Z,86.91
2023-05-10T03:18:38.246Z,86.68
2023-05-10T03:21:13.195Z,86.58
2023-05-10T03:23:45.621Z,86.85
2023-05-10T03:26:27.700Z,86.69
2023-05-10T03:29:03.043Z,86.45
2023-05-10T03:31:29.608Z,86.79
2023-05-10T03:33:56.020Z,86.70
2023-05-10T03:36:26.054Z,86.79
2023-05-10T03:38:52.518Z,86.72
2023-05-10T03:41:18.959Z,86.24
2023-05-10T03:43:45.407Z,86.50
2023-05-10T03:46:11.844Z,86.81
2023-05-10T03:48:38.428Z,86.38
2023-05-10T03:51:04.888Z,86.37
2023-05-10T03:53:31.371Z,86.71
2023-05-10T03:55:57.965Z,86.65
2023-05-10T03:58:24.545Z,86.41
2023-05-10T04:00:52.168Z,86.59
2023-05-10T04:03:19.179Z,86.27
2023-05-10T04:05:45.693Z,86.30
2023-05-10T04:08:12.269Z,86.40
2023-05-10T04:10:38.747Z,86.51
2023-05-10T04:13:05.222Z,86.30
2023-05-10T04:15:31.725Z,86.52
2023-05-10T04:17:58.196Z,86.42
2023-05-10T04:20:24.647Z,86.18
2023-05-10T04:22:51.050Z,86.28
2023-05-10T04:25:17.926Z,86.08
2023-05-10T04:27:44.357Z,85.90
2023-05-10T04:30:11.617Z,85.75
2023-05-10T04:32:38.203Z,85.59
2023-05-10T04:35:05.677Z,85.57
2023-05-10T04:37:32.180Z,85.42
2023-05-10T04:39:58.658Z,85.24
2023-05-10T04:42:25.055Z,85.29
2023-05-10T04:44:52.757Z,85.49
2023-05-10T04:47:19.326Z,85.16
2023-05-10T04:49:46.184Z,85.31
2023-05-10T04:52:12.592Z,85.33
2023-05-10T04:54:38.988Z,85.01
2023-05-10T04:57:05.347Z,84.90
2023-05-10T04:59:31.750Z,84.98
2023-05-10T05:01:58.426Z,84.99
2023-05-10T05:04:25.069Z,84.71
2023-05-10T05:06:53.786Z,84.61
2023-05-10T05:09:20.738Z,84.97
2023-05-10T05:11:47.145Z,84.80
2023-05-10T05:14:13.608Z,84.79
2023-05-10T05:16:40.101Z,84.86
2023-05-10T05:19:06.696Z,84.80
2023-05-10T05:21:33.504Z,84.90
2023-05-10T05:23:59.924Z,84.89
2023-05-10T05:26:27.342Z,85.06
2023-05-10T05:28:55.489Z,84.82
2023-05-10T05:31:22.316Z,84.49
2023-05-10T05:33:48.801Z,84.91
2023-05-10T05:36:15.217Z,85.02
2023-05-10T05:38:41.775Z,84.45
2023-05-10T05:41:08.399Z,84.81
2023-05-10T05:43:38.626Z,84.47
2023-05-10T05:46:05.466Z,84.21
2023-05-10T05:48:32.182Z,84.42
2023-05-10T05:50:58.765Z,84.48
2023-05-10T05:53:25.311Z,84.65
2023-05-10T05:55:56.121Z,84.56
2023-05-10T05:58:23.705Z,84.39
2023-05-10T06:00:50.803Z,84.29
2023-05-10T06:03:17.376Z,84.34
2023-05-10T06:05:44.220Z,84.05
2023-05-10T06:08:11.171Z,84.01
2023-05-10T06:10:37.856Z,83.85
2023-05-10T06:13:04.515Z,83.68
2023-05-10T06:15:31.001Z,83.69
2023-05-10T06:17:57.495Z,83.50
2023-05-10T06:20:23.928Z,83.59
2023-05-10T06:22:50.442Z,83.61
2023-05-10T06:25:19.189Z,83.66
2023-05-10T06:27:48.945Z,83.93
2023-05-10T06:30:17.562Z,83.69
2023-05-10T06:32:45.084Z,83.80
2023-05-10T06:35:11.653Z,83.79
2023-05-10T06:37:38.212Z,83.44
2023-05-10T06:40:05.308Z,83.72
2023-05-10T06:42:31.761Z,83.57
2023-05-10T06:44:58.128Z,83.81
2023-05-10T06:47:24.527Z,83.96
2023-05-10T06:49:50.888Z,83.81
2023-05-10T06:52:17.384Z,84.07
2023-05-10T06:54:43.812Z,84.10
2023-05-10T06:57:23.355Z,83.91
2023-05-10T06:59:59.540Z,83.84
2023-05-10T07:02:25.999Z,83.55
2023-05-10T07:04:53.087Z,83.90
2023-05-10T07:07:19.958Z,83.79
2023-05-10T07:09:46.832Z,83.77
2023-05-10T07:12:15.392Z,83.93
2023-05-10T07:14:43.005Z,83.39
2023-05-10T07:17:09.749Z,83.49
2023-05-10T07:19:36.866Z,83.54
2023-05-10T07:22:03.329Z,83.44
2023-05-10T07:24:29.804Z,83.42
2023-05-10T07:26:56.201Z,83.34
2023-05-10T07:29:22.626Z,83.08
2023-05-10T07:31:49.096Z,83.08
2023-05-10T07:34:15.543Z,83.01
2023-05-10T07:36:41.952Z,82.69
2023-05-10T07:39:08.468Z,82.75
2023-05-10T07:41:35.939Z,82.99
2023-05-10T07:44:02.587Z,82.90
2023-05-10T07:46:29.576Z,82.54
2023-05-10T07:48:56.415Z,82.45
2023-05-10T07:51:22.944Z,82.37
2023-05-10T07:53:49.422Z,82.10
2023-05-10T07:56:30.446Z,82.15
2023-05-10T07:58:57.344Z,82.09
2023-05-10T08:01:23.832Z,82.27
2023-05-10T08:03:51.590Z,82.47
2023-05-10T08:06:19.046Z,82.32
2023-05-10T08:08:50.245Z,82.03
2023-05-10T08:11:21.497Z,82.24
2023-05-10T08:13:50.086Z,82.05
2023-05-10T08:16:17.669Z,81.85
2023-05-10T08:18:45.839Z,81.50
2023-05-10T08:21:12.341Z,80.89
2023-05-10T08:23:38.792Z,81.74
2023-05-10T08:26:05.250Z,81.79
2023-05-10T08:28:31.632Z,81.40
2023-05-10T08:30:58.040Z,80.97
2023-05-10T08:33:24.451Z,80.64
2023-05-10T08:35:51.082Z,80.41
2023-05-10T08:38:17.490Z,80.56
2023-05-10T08:40:44.908Z,80.19
2023-05-10T08:43:13.262Z,79.89
2023-05-10T08:45:41.955Z,80.45
2023-05-10T08:48:10.228Z,79.80
2023-05-10T08:50:38.762Z,78.67
2023-05-10T08:53:07.671Z,79.29
2023-05-10T08:55:34.686Z,78.95
2023-05-10T08:58:01.288Z,79.04
2023-05-10T09:00:29.451Z,79.77
2023-05-10T09:02:56.271Z,79.48
2023-05-10T09:05:22.749Z,79.24
2023-05-10T09:07:49.200Z,79.16
2023-05-10T09:10:16.711Z,78.61
2023-05-10T09:12:44.994Z,78.87
2023-05-10T09:15:15.974Z,78.54
2023-05-10T09:17:44.827Z,78.47
2023-05-10T09:20:11.356Z,78.86
2023-05-10T09:22:38.632Z,78.51
2023-05-10T09:25:16.469Z,78.03
2023-05-10T09:27:46.331Z,77.30
2023-05-10T09:30:27.356Z,77.08
2023-05-10T09:32:55.213Z,76.10
2023-05-10T09:35:26.497Z,75.86
2023-05-10T09:37:55.956Z,76.12
2023-05-10T09:40:24.432Z,75.92
2023-05-10T09:42:59.468Z,76.20
2023-05-10T09:45:28.612Z,76.49
2023-05-10T09:47:55.541Z,76.25
2023-05-10T09:50:22.634Z,76.49
2023-05-10T09:52:52.167Z,76.00
2023-05-10T09:55:23.449Z,76.18
2023-05-10T09:57:59.042Z,76.39
2023-05-10T10:00:25.574Z,76.15
2023-05-10T10:02:59.702Z,75.99
2023-05-10T10:05:30.665Z,75.89
2023-05-10T10:07:59.134Z,76.23
2023-05-10T10:10:27.526Z,76.40
2023-05-10T10:12:56.261Z,75.71
2023-05-10T10:15:24.020Z,75.95
2023-05-10T10:17:51.812Z,75.92
2023-05-10T10:20:20.735Z,76.13
2023-05-10T10:22:47.696Z,76.25
2023-05-10T10:25:16.660Z,75.63
2023-05-10T10:27:49.378Z,75.55
2023-05-10T10:30:32.521Z,75.69
2023-05-10T10:33:24.387Z,75.07
2023-05-10T10:35:56.392Z,74.74
2023-05-10T10:38:23.727Z,74.23
2023-05-10T10:41:03.197Z,74.00
2023-05-10T10:43:31.181Z,74.61
2023-05-10T10:46:18.178Z,74.06
2023-05-10T10:48:49.401Z,74.43
2023-05-10T10:51:15.885Z,74.29
2023-05-10T10:53:42.284Z,74.15
2023-05-10T10:56:10.890Z,74.46
2023-05-10T10:58:39.261Z,74.52
2023-05-10T11:01:17.269Z,74.13
2023-05-10T11:04:16.232Z,74.19
2023-05-10T11:06:43.394Z,74.25
2023-05-10T11:09:12.344Z,74.90
2023-05-10T11:11:59.216Z,74.17
2023-05-10T11:14:26.337Z,74.02
2023-05-10T11:16:52.998Z,74.07
2023-05-10T11:19:20.358Z,74.21
2023-05-10T11:21:50.829Z,73.98
2023-05-10T11:24:23.993Z,74.10
2023-05-10T11:26:52.094Z,74.22
2023-05-10T11:29:18.613Z,74.36
2023-05-10T11:31:47.458Z,74.43
2023-05-10T11:34:34.648Z,74.34
2023-05-10T11:37:01.856Z,75.03
2023-05-10T11:39:30.055Z,74.49
2023-05-10T11:41:57.265Z,74.76
2023-05-10T11:44:24.311Z,74.91
2023-05-10T11:46:50.887Z,74.59
2023-05-10T11:49:17.594Z,74.57
2023-05-10T11:51:44.530Z,74.49
2023-05-10T11:54:12.176Z,74.34
2023-05-10T11:56:40.241Z,74.04
2023-05-10T11:59:07.408Z,74.24
2023-05-10T12:01:34.461Z,74.10
2023-05-10T12:04:01.731Z,73.83
2023-05-10T12:06:30.444Z,73.63
2023-05-10T12:08:56.932Z,73.80
2023-05-10T12:11:26.981Z,74.13
2023-05-10T12:13:55.752Z,74.11
2023-05-10T12:16:24.601Z,74.34
2023-05-10T12:18:52.492Z,74.41
2023-05-10T12:21:20.842Z,75.08
2023-05-10T12:23:49.493Z,75.32
2023-05-10T12:26:16.088Z,75.20
2023-05-10T12:28:42.567Z,75.13
2023-05-10T12:31:09.245Z,74.78
2023-05-10T12:33:39.800Z,74.56
2023-05-10T12:36:07.642Z,74.01
2023-05-10T12:38:38.853Z,73.99
2023-05-10T12:41:14.024Z,73.93
2023-05-10T12:43:40.959Z,73.41
2023-05-10T12:46:11.643Z,73.32
2023-05-10T12:48:39.986Z,72.40
2023-05-10T12:51:10.158Z,72.20
2023-05-10T12:53:37.604Z,72.02
2023-05-10T12:56:04.158Z,71.91
2023-05-10T13:01:00.424Z,71.17
2023-05-10T13:03:26.845Z,71.38
2023-05-10T13:05:53.224Z,71.10
2023-05-10T13:08:19.584Z,71.37
2023-05-10T13:10:46.124Z,71.19
2023-05-10T13:13:12.509Z,70.63
2023-05-10T13:15:39.014Z,70.40
2023-05-10T13:18:05.436Z,70.17
2023-05-10T13:20:31.911Z,69.77
2023-05-10T13:22:58.360Z,68.99
2023-05-10T13:25:24.898Z,68.58
2023-05-10T13:27:51.357Z,68.19
2023-05-10T13:30:18.122Z,68.40
2023-05-10T13:32:44.820Z,67.96
2023-05-10T13:35:11.287Z,67.69
2023-05-10T13:37:38.208Z,67.49
2023-05-10T13:40:05.573Z,67.76
2023-05-10T13:42:34.275Z,67.83
2023-05-10T13:45:02.528Z,67.95
2023-05-10T13:47:29.109Z,67.89
2023-05-10T13:49:55.621Z,68.49
2023-05-10T13:52:25.135Z,68.34
2023-05-10T13:54:55.721Z,68.65
2023-05-10T13:57:22.689Z,69.21
2023-05-10T13:59:49.151Z,69.28
2023-05-10T14:02:15.768Z,69.93
2023-05-10T14:04:42.314Z,69.87
2023-05-10T14:07:08.892Z,70.60
2023-05-10T14:09:35.277Z,70.57
2023-05-10T14:12:01.719Z,70.46
2023-05-10T14:14:29.994Z,70.70
2023-05-10T14:16:56.825Z,70.61
2023-05-10T14:19:23.234Z,70.51
2023-05-10T14:21:49.800Z,70.62
2023-05-10T14:24:16.388Z,70.67
2023-05-10T14:26:42.752Z,70.06
2023-05-10T14:29:10.778Z,69.92
2023-05-10T14:31:39.967Z,69.86
2023-05-10T14:34:06.542Z,70.02
2023-05-10T14:36:33.253Z,70.11
2023-05-10T14:38:59.681Z,70.06
2023-05-10T14:41:26.102Z,69.50
2023-05-10T14:43:52.512Z,69.91
2023-05-10T14:46:19.119Z,69.60
2023-05-10T14:48:45.544Z,69.95
2023-05-10T14:51:12.059Z,69.32
2023-05-10T14:53:38.486Z,69.40
2023-05-10T14:56:05.100Z,69.09
2023-05-10T14:58:33.967Z,69.37
2023-05-10T15:01:01.147Z,69.40
2023-05-10T15:03:28.316Z,68.78
2023-05-10T15:05:57.022Z,68.90
2023-05-10T15:08:24.802Z,68.70
2023-05-10T15:10:52.197Z,69.48
2023-05-10T15:13:18.767Z,66.78
2023-05-10T15:15:45.290Z,67.26
2023-05-10T15:18:11.838Z,67.61
2023-05-10T15:20:38.277Z,67.47
2023-05-10T15:23:04.709Z,66.86
2023-05-10T15:25:31.154Z,66.83
2023-05-10T15:27:57.581Z,67.38
2023-05-10T15:30:24.007Z,67.20
2023-05-10T15:32:50.556Z,66.59
2023-05-10T15:35:18.170Z,66.52
2023-05-10T15:37:44.830Z,66.71
2023-05-10T15:40:11.557Z,66.26
2023-05-10T15:42:37.965Z,65.45
2023-05-10T15:45:04.944Z,65.41
2023-05-10T15:47:31.649Z,66.21
2023-05-10T15:49:58.264Z,66.60
2023-05-10T15:52:24.629Z,66.13
2023-05-10T15:54:51.245Z,66.50
2023-05-10T15:57:17.667Z,66.49
2023-05-10T15:59:44.124Z,66.78
2023-05-10T16:02:13.729Z,66.61
2023-05-10T16:04:40.180Z,66.21
2023-05-10T16:07:06.541Z,66.31
2023-05-10T16:09:33.000Z,66.37
2023-05-10T16:11:59.397Z,66.29
2023-05-10T16:14:26.047Z,66.44
2023-05-10T16:16:52.551Z,66.71
2023-05-10T16:19:19.139Z,66.50
2023-05-10T16:21:45.623Z,66.96
2023-05-10T16:24:12.148Z,66.53
2023-05-10T16:26:40.911Z,66.68
2023-05-10T16:29:10.569Z,67.26
2023-05-10T16:31:37.009Z,66.96
2023-05-10T16:34:03.489Z,66.12
2023-05-10T16:36:30.295Z,65.81
2023-05-10T16:38:56.734Z,65.83
2023-05-10T16:41:23.231Z,66.40
2023-05-10T16:43:50.080Z,66.54
2023-05-10T16:46:16.639Z,66.15
2023-05-10T16:48:43.107Z,66.08
2023-05-10T16:51:09.751Z,65.55
2023-05-10T16:53:36.309Z,65.90
2023-05-10T16:56:03.383Z,65.94
2023-05-10T16:58:29.834Z,66.02
2023-05-10T17:00:56.299Z,65.65
2023-05-10T17:03:23.182Z,65.69
2023-05-10T17:05:52.080Z,65.85
2023-05-10T17:08:18.490Z,66.00
2023-05-10T17:10:45.122Z,65.83
2023-05-10T17:13:11.671Z,65.90
2023-05-10T17:15:39.236Z,65.97
2023-05-10T17:18:07.000Z,66.34
2023-05-10T17:20:34.297Z,66.75
2023-05-10T17:23:02.541Z,67.49
2023-05-10T17:25:29.533Z,68.04
2023-05-10T17:27:55.952Z,68.85
2023-05-10T17:30:26.268Z,68.95
2023-05-10T17:32:54.145Z,69.28
2023-05-10T17:35:21.357Z,69.44
2023-05-10T17:37:47.888Z,70.32
2023-05-10T17:40:14.354Z,70.67
2023-05-10T17:42:40.885Z,70.49
2023-05-10T17:45:07.894Z,70.89
2023-05-10T17:47:34.338Z,70.73
2023-05-10T17:50:00.930Z,70.63
2023-05-10T17:52:29.345Z,70.60
2023-05-10T17:54:56.689Z,70.25
2023-05-10T17:57:23.748Z,70.75
2023-05-10T17:59:50.455Z,71.04
2023-05-10T18:02:16.993Z,70.57
2023-05-10T18:04:43.631Z,70.48
2023-05-10T18:07:10.181Z,70.63
2023-05-10T18:09:36.674Z,70.62
2023-05-10T18:12:03.341Z,70.82
2023-05-10T18:14:39.871Z,70.69
2023-05-10T18:17:08.330Z,70.37
2023-05-10T18:19:34.904Z,70.53
2023-05-10T18:22:01.380Z,70.54
2023-05-10T18:24:38.197Z,70.75
2023-05-10T18:27:08.007Z,70.58
2023-05-10T18:29:34.511Z,70.58
2023-05-10T18:32:00.965Z,70.62
2023-05-10T18:34:27.448Z,70.78
2023-05-10T18:36:53.856Z,70.79
2023-05-10T18:39:20.608Z,70.79
2023-05-10T18:41:47.148Z,70.98
2023-05-10T18:44:14.503Z,70.73
2023-05-10T18:46:42.317Z,71.10
2023-05-10T18:49:09.190Z,71.15
2023-05-10T18:51:35.707Z,71.40
2023-05-10T18:54:02.390Z,71.57
2023-05-10T18:56:28.858Z,71.40
2023-05-10T18:58:55.361Z,71.41
2023-05-10T19:01:21.878Z,71.91
2023-05-10T19:03:48.312Z,71.56
2023-05-10T19:06:14.842Z,71.78
2023-05-10T19:08:41.322Z,71.73
2023-05-10T19:11:07.821Z,71.72
2023-05-10T19:13:34.362Z,73.55
2023-05-10T19:16:06.168Z,73.07
2023-05-10T19:18:33.738Z,72.54
2023-05-10T19:21:04.308Z,72.53
2023-05-10T19:23:34.835Z,72.35
2023-05-10T19:26:01.835Z,72.41
2023-05-10T19:28:28.510Z,72.28
2023-05-10T19:30:55.000Z,72.25
2023-05-10T19:33:21.544Z,72.59
2023-05-10T19:35:52.046Z,72.76
2023-05-10T19:38:22.167Z,72.32
2023-05-10T19:40:50.222Z,72.82
2023-05-10T19:43:17.139Z,72.80
2023-05-10T19:45:43.694Z,72.91
2023-05-10T19:48:11.086Z,72.81
2023-05-10T19:50:38.407Z,72.71
2023-05-10T19:53:04.914Z,73.10
2023-05-10T19:55:32.230Z,72.75
2023-05-10T19:58:00.558Z,73.07
2023-05-10T20:00:30.268Z,73.16
2023-05-10T20:02:56.899Z,72.94
2023-05-10T20:05:23.929Z,73.29
2023-05-10T20:07:50.939Z,73.24
2023-05-10T20:10:17.958Z,73.23
2023-05-10T20:12:52.421Z,73.78
2023-05-10T20:15:23.547Z,73.67
2023-05-10T20:17:51.895Z,73.68
2023-05-10T20:20:20.070Z,73.87
2023-05-10T20:22:50.287Z,73.64
2023-05-10T20:25:18.309Z,73.85
2023-05-10T20:27:45.009Z,73.67
2023-05-10T20:30:11.864Z,73.83
2023-05-10T20:32:39.025Z,74.02
2023-05-10T20:35:06.133Z,74.04
2023-05-10T20:37:32.608Z,74.33
2023-05-10T20:39:59.122Z,74.15
2023-05-10T20:42:25.546Z,74.30
2023-05-10T20:44:51.949Z,74.09
2023-05-10T20:47:18.519Z,74.42
2023-05-10T20:49:44.990Z,74.42
2023-05-10T20:52:11.669Z,74.53
2023-05-10T20:54:38.047Z,74.35
2023-05-10T20:57:04.473Z,73.99
2023-05-10T20:59:30.911Z,74.06
2023-05-10T21:01:57.710Z,74.58
2023-05-10T21:04:25.582Z,74.50
2023-05-10T21:06:52.920Z,74.54
2023-05-10T21:09:19.413Z,74.48
2023-05-10T21:11:45.929Z,74.60
2023-05-10T21:14:12.425Z,74.83
2023-05-10T21:16:39.009Z,74.65
2023-05-10T21:19:07.157Z,74.75
2023-05-10T21:21:33.890Z,74.58
2023-05-10T21:24:00.522Z,74.79
2023-05-10T21:26:26.956Z,74.47
2023-05-10T21:28:53.371Z,74.95
2023-05-10T21:31:20.201Z,74.67
2023-05-10T21:33:46.725Z,75.07
2023-05-10T21:36:13.753Z,74.86
2023-05-10T21:38:40.947Z,75.11
2023-05-10T21:41:08.036Z,75.07
2023-05-10T21:43:34.686Z,74.92
2023-05-10T21:46:01.557Z,74.82
2023-05-10T21:48:28.150Z,74.84
2023-05-10T21:50:54.664Z,74.80
2023-05-10T21:53:22.234Z,74.80
2023-05-10T21:55:48.829Z,74.79
2023-05-10T21:58:15.275Z,75.06
2023-05-10T22:00:41.675Z,75.08
2023-05-10T22:03:08.232Z,75.18
2023-05-10T22:05:34.952Z,75.50
2023-05-10T22:08:14.705Z,75.48
2023-05-10T22:10:41.159Z,75.50
2023-05-10T22:13:07.688Z,75.32
2023-05-10T22:15:36.336Z,75.24
2023-05-10T22:18:03.108Z,75.29
2023-05-10T22:20:29.662Z,75.50
2023-05-10T22:22:56.123Z,75.29
2023-05-10T22:25:22.690Z,75.84
2023-05-10T22:27:49.179Z,76.27
2023-05-10T22:30:15.966Z,77.23
2023-05-10T22:32:42.638Z,77.47
2023-05-10T22:35:09.254Z,77.40
2023-05-10T22:37:35.707Z,77.53
2023-05-10T22:40:02.305Z,76.74
2023-05-10T22:42:29.824Z,77.18
2023-05-10T22:44:56.500Z,77.42
2023-05-10T22:47:22.941Z,77.48
2023-05-10T22:49:49.346Z,77.50
2023-05-10T22:52:15.729Z,77.43
2023-05-10T22:54:42.273Z,77.71
2023-05-10T22:57:08.717Z,77.60
2023-05-10T22:59:35.175Z,77.81
2023-05-10T23:02:01.697Z,77.53
2023-05-10T23:04:28.094Z,77.25
2023-05-10T23:06:54.550Z,77.58
2023-05-10T23:09:21.323Z,77.41
2023-05-10T23:11:47.738Z,77.50
2023-05-10T23:14:14.131Z,77.19
2023-05-10T23:16:40.764Z,77.56
2023-05-10T23:19:07.482Z,77.74
2023-05-10T23:21:34.401Z,77.74
2023-05-10T23:24:00.909Z,77.88
2023-05-10T23:26:27.460Z,77.56
2023-05-10T23:28:53.942Z,78.05
2023-05-10T23:31:20.393Z,78.02
2023-05-10T23:33:46.809Z,77.87
2023-05-10T23:36:13.210Z,77.97
2023-05-10T23:38:39.653Z,77.90
2023-05-10T23:41:06.193Z,77.95
2023-05-10T23:43:32.611Z,77.70
2023-05-10T23:45:59.482Z,77.54
2023-05-10T23:48:26.058Z,77.68
2023-05-10T23:50:52.594Z,77.94
2023-05-10T23:53:19.218Z,77.38
2023-05-10T23:55:45.871Z,77.79
2023-05-10T23:58:12.557Z,77.35
